sensor_id;sensor_type;location;lat;lon;timestamp;P1;durP1;ratioP1;P2;durP2;ratioP2
74158;SDS011;62511;47.970;11.774;2022-08-19T00:00:35;5.18;;;3.67;;
74158;SDS011;62511;47.970;11.774;2022-08-19T00:03:01;3.70;;;2.40;;
74158;SDS011;62511;47.970;11.774;2022-08-19T00:05:27;4.63;;;2.70;;
74158;SDS011;62511;47.970;11.774;2022-08-19T00:07:53;4.20;;;2.78;;
74158;SDS011;62511;47.970;11.774;2022-08-19T00:10:19;3.35;;;2.42;;
74158;SDS011;62511;47.970;11.774;2022-08-19T00:12:45;3.58;;;2.80;;
74158;SDS011;62511;47.970;11.774;2022-08-19T00:15:13;4.28;;;2.97;;
74158;SDS011;62511;47.970;11.774;2022-08-19T00:17:40;3.50;;;2.40;;
74158;SDS011;62511;47.970;11.774;2022-08-19T00:20:08;4.88;;;3.03;;
74158;SDS011;62511;47.970;11.774;2022-08-19T00:22:35;4.15;;;2.35;;
74158;SDS011;62511;47.970;11.774;2022-08-19T00:25:01;3.90;;;2.58;;
74158;SDS011;62511;47.970;11.774;2022-08-19T00:27:27;3.75;;;2.60;;
74158;SDS011;62511;47.970;11.774;2022-08-19T00:29:53;2.75;;;2.20;;
74158;SDS011;62511;47.970;11.774;2022-08-19T00:32:20;6.43;;;2.92;;
74158;SDS011;62511;47.970;11.774;2022-08-19T00:34:46;3.45;;;2.15;;
74158;SDS011;62511;47.970;11.774;2022-08-19T00:37:12;2.88;;;2.05;;
74158;SDS011;62511;47.970;11.774;2022-08-19T00:39:38;3.00;;;2.22;;
74158;SDS011;62511;47.970;11.774;2022-08-19T00:42:04;3.42;;;2.20;;
74158;SDS011;62511;47.970;11.774;2022-08-19T00:44:31;3.00;;;2.08;;
74158;SDS011;62511;47.970;11.774;2022-08-19T00:46:57;4.07;;;2.15;;
74158;SDS011;62511;47.970;11.774;2022-08-19T00:49:38;3.17;;;2.25;;
74158;SDS011;62511;47.970;11.774;2022-08-19T00:52:15;3.38;;;2.03;;
74158;SDS011;62511;47.970;11.774;2022-08-19T00:54:42;4.03;;;2.30;;
74158;SDS011;62511;47.970;11.774;2022-08-19T00:57:09;3.88;;;2.28;;
74158;SDS011;62511;47.970;11.774;2022-08-19T00:59:38;3.53;;;2.35;;
74158;SDS011;62511;47.970;11.774;2022-08-19T01:02:05;2.90;;;2.25;;
74158;SDS011;62511;47.970;11.774;2022-08-19T01:04:31;3.15;;;2.08;;
74158;SDS011;62511;47.970;11.774;2022-08-19T01:06:57;2.97;;;2.10;;
74158;SDS011;62511;47.970;11.774;2022-08-19T01:09:24;3.55;;;2.22;;
74158;SDS011;62511;47.970;11.774;2022-08-19T01:11:50;2.28;;;1.80;;
74158;SDS011;62511;47.970;11.774;2022-08-19T01:14:17;2.40;;;1.70;;
74158;SDS011;62511;47.970;11.774;2022-08-19T01:16:43;2.42;;;1.90;;
74158;SDS011;62511;47.970;11.774;2022-08-19T01:19:12;3.08;;;2.28;;
74158;SDS011;62511;47.970;11.774;2022-08-19T01:21:42;2.53;;;1.85;;
74158;SDS011;62511;47.970;11.774;2022-08-19T01:24:09;4.10;;;2.15;;
74158;SDS011;62511;47.970;11.774;2022-08-19T01:26:42;3.30;;;2.50;;
74158;SDS011;62511;47.970;11.774;2022-08-19T01:29:10;2.55;;;1.73;;
74158;SDS011;62511;47.970;11.774;2022-08-19T01:31:36;2.70;;;1.50;;
74158;SDS011;62511;47.970;11.774;2022-08-19T01:34:04;2.25;;;1.80;;
74158;SDS011;62511;47.970;11.774;2022-08-19T01:36:38;1.77;;;1.30;;
74158;SDS011;62511;47.970;11.774;2022-08-19T01:39:08;3.05;;;1.73;;
74158;SDS011;62511;47.970;11.774;2022-08-19T01:41:34;2.42;;;1.52;;
74158;SDS011;62511;47.970;11.774;2022-08-19T01:44:00;2.35;;;1.80;;
74158;SDS011;62511;47.970;11.774;2022-08-19T01:46:29;2.22;;;1.80;;
74158;SDS011;62511;47.970;11.774;2022-08-19T01:48:55;2.55;;;1.80;;
74158;SDS011;62511;47.970;11.774;2022-08-19T01:51:21;3.15;;;1.80;;
74158;SDS011;62511;47.970;11.774;2022-08-19T01:53:48;2.72;;;1.80;;
74158;SDS011;62511;47.970;11.774;2022-08-19T01:56:14;3.35;;;1.70;;
74158;SDS011;62511;47.970;11.774;2022-08-19T01:58:45;4.75;;;2.28;;
74158;SDS011;62511;47.970;11.774;2022-08-19T02:01:13;3.22;;;2.00;;
74158;SDS011;62511;47.970;11.774;2022-08-19T02:03:39;4.50;;;2.30;;
74158;SDS011;62511;47.970;11.774;2022-08-19T02:06:05;3.22;;;2.08;;
74158;SDS011;62511;47.970;11.774;2022-08-19T02:08:34;3.80;;;2.08;;
74158;SDS011;62511;47.970;11.774;2022-08-19T02:11:01;2.70;;;2.05;;
74158;SDS011;62511;47.970;11.774;2022-08-19T02:13:27;2.92;;;2.13;;
74158;SDS011;62511;47.970;11.774;2022-08-19T02:15:53;3.33;;;2.20;;
74158;SDS011;62511;47.970;11.774;2022-08-19T02:18:19;3.17;;;2.13;;
74158;SDS011;62511;47.970;11.774;2022-08-19T02:20:45;3.83;;;2.05;;
74158;SDS011;62511;47.970;11.774;2022-08-19T02:23:15;3.30;;;2.25;;
74158;SDS011;62511;47.970;11.774;2022-08-19T02:25:42;3.47;;;2.15;;
74158;SDS011;62511;47.970;11.774;2022-08-19T02:28:09;3.55;;;2.40;;
74158;SDS011;62511;47.970;11.774;2022-08-19T02:33:03;3.17;;;1.90;;
74158;SDS011;62511;47.970;11.774;2022-08-19T02:35:29;3.83;;;2.65;;
74158;SDS011;62511;47.970;11.774;2022-08-19T02:37:55;3.35;;;2.35;;
74158;SDS011;62511;47.970;11.774;2022-08-19T02:40:40;3.65;;;2.28;;
74158;SDS011;62511;47.970;11.774;2022-08-19T02:43:07;6.05;;;2.50;;
74158;SDS011;62511;47.970;11.774;2022-08-19T02:47:59;3.17;;;2.30;;
74158;SDS011;62511;47.970;11.774;2022-08-19T02:50:27;4.90;;;2.50;;
74158;SDS011;62511;47.970;11.774;2022-08-19T02:52:53;3.63;;;2.50;;
74158;SDS011;62511;47.970;11.774;2022-08-19T02:55:19;3.10;;;2.08;;
74158;SDS011;62511;47.970;11.774;2022-08-19T02:57:46;3.35;;;1.98;;
74158;SDS011;62511;47.970;11.774;2022-08-19T03:00:12;3.63;;;2.13;;
74158;SDS011;62511;47.970;11.774;2022-08-19T03:02:39;3.85;;;2.60;;
74158;SDS011;62511;47.970;11.774;2022-08-19T03:05:08;3.38;;;2.35;;
74158;SDS011;62511;47.970;11.774;2022-08-19T03:07:34;4.25;;;2.60;;
74158;SDS011;62511;47.970;11.774;2022-08-19T03:10:00;3.97;;;2.08;;
74158;SDS011;62511;47.970;11.774;2022-08-19T03:12:26;2.97;;;2.20;;
74158;SDS011;62511;47.970;11.774;2022-08-19T03:14:52;3.95;;;2.15;;
74158;SDS011;62511;47.970;11.774;2022-08-19T03:17:19;3.22;;;2.30;;
74158;SDS011;62511;47.970;11.774;2022-08-19T03:19:45;2.75;;;1.95;;
74158;SDS011;62511;47.970;11.774;2022-08-19T03:22:11;3.25;;;1.77;;
74158;SDS011;62511;47.970;11.774;2022-08-19T03:24:37;3.00;;;2.05;;
74158;SDS011;62511;47.970;11.774;2022-08-19T03:27:03;4.10;;;2.20;;
74158;SDS011;62511;47.970;11.774;2022-08-19T03:29:30;2.92;;;2.40;;
74158;SDS011;62511;47.970;11.774;2022-08-19T03:31:57;2.92;;;2.13;;
74158;SDS011;62511;47.970;11.774;2022-08-19T03:34:26;2.92;;;1.98;;
74158;SDS011;62511;47.970;11.774;2022-08-19T03:36:56;3.80;;;2.20;;
74158;SDS011;62511;47.970;11.774;2022-08-19T03:39:23;4.55;;;2.38;;
74158;SDS011;62511;47.970;11.774;2022-08-19T03:41:52;2.80;;;1.90;;
74158;SDS011;62511;47.970;11.774;2022-08-19T03:44:21;3.45;;;1.95;;
74158;SDS011;62511;47.970;11.774;2022-08-19T03:46:54;2.97;;;2.10;;
74158;SDS011;62511;47.970;11.774;2022-08-19T03:49:21;3.08;;;1.98;;
74158;SDS011;62511;47.970;11.774;2022-08-19T03:51:48;2.80;;;1.98;;
74158;SDS011;62511;47.970;11.774;2022-08-19T03:54:16;2.97;;;1.75;;
74158;SDS011;62511;47.970;11.774;2022-08-19T03:56:43;3.35;;;2.40;;
74158;SDS011;62511;47.970;11.774;2022-08-19T03:59:11;2.83;;;2.05;;
74158;SDS011;62511;47.970;11.774;2022-08-19T04:01:38;3.13;;;1.83;;
74158;SDS011;62511;47.970;11.774;2022-08-19T04:04:04;3.75;;;2.30;;
74158;SDS011;62511;47.970;11.774;2022-08-19T04:06:32;4.63;;;2.50;;
74158;SDS011;62511;47.970;11.774;2022-08-19T04:08:59;2.50;;;1.73;;
74158;SDS011;62511;47.970;11.774;2022-08-19T04:11:28;2.58;;;1.83;;
74158;SDS011;62511;47.970;11.774;2022-08-19T04:13:54;2.83;;;1.88;;
74158;SDS011;62511;47.970;11.774;2022-08-19T04:16:22;3.25;;;2.08;;
74158;SDS011;62511;47.970;11.774;2022-08-19T04:18:48;3.38;;;1.65;;
74158;SDS011;62511;47.970;11.774;2022-08-19T04:21:16;3.30;;;1.65;;
74158;SDS011;62511;47.970;11.774;2022-08-19T04:23:42;3.25;;;1.90;;
74158;SDS011;62511;47.970;11.774;2022-08-19T04:26:12;2.78;;;1.83;;
74158;SDS011;62511;47.970;11.774;2022-08-19T04:28:38;3.53;;;1.98;;
74158;SDS011;62511;47.970;11.774;2022-08-19T04:31:04;3.22;;;1.90;;
74158;SDS011;62511;47.970;11.774;2022-08-19T04:33:30;3.28;;;1.67;;
74158;SDS011;62511;47.970;11.774;2022-08-19T04:35:56;5.28;;;1.75;;
74158;SDS011;62511;47.970;11.774;2022-08-19T04:38:23;2.15;;;1.80;;
74158;SDS011;62511;47.970;11.774;2022-08-19T04:40:50;2.03;;;1.52;;
74158;SDS011;62511;47.970;11.774;2022-08-19T04:43:36;2.85;;;1.88;;
74158;SDS011;62511;47.970;11.774;2022-08-19T04:46:07;2.65;;;1.90;;
74158;SDS011;62511;47.970;11.774;2022-08-19T04:48:34;3.38;;;1.73;;
74158;SDS011;62511;47.970;11.774;2022-08-19T04:51:00;4.35;;;2.15;;
74158;SDS011;62511;47.970;11.774;2022-08-19T04:53:30;2.25;;;1.70;;
74158;SDS011;62511;47.970;11.774;2022-08-19T04:55:56;3.95;;;1.58;;
74158;SDS011;62511;47.970;11.774;2022-08-19T04:58:23;2.67;;;1.80;;
74158;SDS011;62511;47.970;11.774;2022-08-19T05:03:16;2.17;;;1.40;;
74158;SDS011;62511;47.970;11.774;2022-08-19T05:05:42;2.35;;;1.58;;
74158;SDS011;62511;47.970;11.774;2022-08-19T05:08:09;2.15;;;1.60;;
74158;SDS011;62511;47.970;11.774;2022-08-19T05:10:36;2.47;;;1.80;;
74158;SDS011;62511;47.970;11.774;2022-08-19T05:15:28;2.78;;;1.52;;
74158;SDS011;62511;47.970;11.774;2022-08-19T05:17:54;1.98;;;1.63;;
74158;SDS011;62511;47.970;11.774;2022-08-19T05:20:39;2.28;;;1.55;;
74158;SDS011;62511;47.970;11.774;2022-08-19T05:23:24;3.20;;;1.60;;
74158;SDS011;62511;47.970;11.774;2022-08-19T05:25:50;1.85;;;1.40;;
74158;SDS011;62511;47.970;11.774;2022-08-19T05:28:17;3.00;;;1.75;;
74158;SDS011;62511;47.970;11.774;2022-08-19T05:30:43;2.42;;;1.50;;
74158;SDS011;62511;47.970;11.774;2022-08-19T05:33:10;2.30;;;1.70;;
74158;SDS011;62511;47.970;11.774;2022-08-19T05:35:37;1.92;;;1.50;;
74158;SDS011;62511;47.970;11.774;2022-08-19T05:38:04;2.90;;;1.52;;
74158;SDS011;62511;47.970;11.774;2022-08-19T05:40:33;1.67;;;1.33;;
74158;SDS011;62511;47.970;11.774;2022-08-19T05:43:01;2.22;;;1.58;;
74158;SDS011;62511;47.970;11.774;2022-08-19T05:45:27;2.50;;;1.65;;
74158;SDS011;62511;47.970;11.774;2022-08-19T05:47:53;2.90;;;1.85;;
74158;SDS011;62511;47.970;11.774;2022-08-19T05:50:19;2.17;;;1.65;;
74158;SDS011;62511;47.970;11.774;2022-08-19T05:52:45;2.20;;;1.63;;
74158;SDS011;62511;47.970;11.774;2022-08-19T05:55:11;2.70;;;1.88;;
74158;SDS011;62511;47.970;11.774;2022-08-19T05:57:38;2.15;;;1.60;;
74158;SDS011;62511;47.970;11.774;2022-08-19T06:00:06;2.35;;;1.80;;
74158;SDS011;62511;47.970;11.774;2022-08-19T06:02:35;2.15;;;1.70;;
74158;SDS011;62511;47.970;11.774;2022-08-19T06:05:02;2.45;;;1.75;;
74158;SDS011;62511;47.970;11.774;2022-08-19T06:07:28;2.67;;;1.75;;
74158;SDS011;62511;47.970;11.774;2022-08-19T06:09:54;2.70;;;1.92;;
74158;SDS011;62511;47.970;11.774;2022-08-19T06:12:21;3.42;;;2.00;;
74158;SDS011;62511;47.970;11.774;2022-08-19T06:14:49;2.25;;;1.70;;
74158;SDS011;62511;47.970;11.774;2022-08-19T06:17:15;2.80;;;2.00;;
74158;SDS011;62511;47.970;11.774;2022-08-19T06:19:41;2.90;;;2.03;;
74158;SDS011;62511;47.970;11.774;2022-08-19T06:22:08;2.85;;;2.05;;
74158;SDS011;62511;47.970;11.774;2022-08-19T06:24:36;3.30;;;1.90;;
74158;SDS011;62511;47.970;11.774;2022-08-19T06:27:02;3.70;;;2.05;;
74158;SDS011;62511;47.970;11.774;2022-08-19T06:29:30;2.60;;;2.00;;
74158;SDS011;62511;47.970;11.774;2022-08-19T06:34:23;3.83;;;2.10;;
74158;SDS011;62511;47.970;11.774;2022-08-19T06:36:50;3.13;;;1.98;;
74158;SDS011;62511;47.970;11.774;2022-08-19T06:39:19;2.20;;;1.60;;
74158;SDS011;62511;47.970;11.774;2022-08-19T06:41:46;2.40;;;1.85;;
74158;SDS011;62511;47.970;11.774;2022-08-19T06:44:13;2.60;;;2.08;;
74158;SDS011;62511;47.970;11.774;2022-08-19T06:46:39;3.97;;;2.10;;
74158;SDS011;62511;47.970;11.774;2022-08-19T06:49:06;3.38;;;2.45;;
74158;SDS011;62511;47.970;11.774;2022-08-19T06:51:36;2.53;;;2.20;;
74158;SDS011;62511;47.970;11.774;2022-08-19T06:54:03;3.20;;;2.47;;
74158;SDS011;62511;47.970;11.774;2022-08-19T06:56:30;4.55;;;2.10;;
74158;SDS011;62511;47.970;11.774;2022-08-19T06:59:03;3.92;;;2.35;;
74158;SDS011;62511;47.970;11.774;2022-08-19T07:01:31;3.45;;;2.53;;
74158;SDS011;62511;47.970;11.774;2022-08-19T07:03:59;4.40;;;2.60;;
74158;SDS011;62511;47.970;11.774;2022-08-19T07:06:27;3.10;;;2.22;;
74158;SDS011;62511;47.970;11.774;2022-08-19T07:08:55;4.28;;;3.03;;
74158;SDS011;62511;47.970;11.774;2022-08-19T07:11:22;5.53;;;3.00;;
74158;SDS011;62511;47.970;11.774;2022-08-19T07:13:49;4.75;;;2.85;;
74158;SDS011;62511;47.970;11.774;2022-08-19T07:16:16;5.38;;;2.78;;
74158;SDS011;62511;47.970;11.774;2022-08-19T07:18:44;5.07;;;3.35;;
74158;SDS011;62511;47.970;11.774;2022-08-19T07:21:14;3.72;;;2.78;;
74158;SDS011;62511;47.970;11.774;2022-08-19T07:23:41;5.57;;;3.20;;
74158;SDS011;62511;47.970;11.774;2022-08-19T07:26:08;5.63;;;3.08;;
74158;SDS011;62511;47.970;11.774;2022-08-19T07:28:35;5.18;;;3.08;;
74158;SDS011;62511;47.970;11.774;2022-08-19T07:31:07;5.45;;;3.13;;
74158;SDS011;62511;47.970;11.774;2022-08-19T07:33:33;6.35;;;3.42;;
74158;SDS011;62511;47.970;11.774;2022-08-19T07:36:02;5.72;;;3.72;;
74158;SDS011;62511;47.970;11.774;2022-08-19T07:43:20;6.43;;;3.90;;
74158;SDS011;62511;47.970;11.774;2022-08-19T07:45:50;6.45;;;3.45;;
74158;SDS011;62511;47.970;11.774;2022-08-19T07:48:17;7.75;;;3.95;;
74158;SDS011;62511;47.970;11.774;2022-08-19T07:50:44;7.45;;;4.57;;
74158;SDS011;62511;47.970;11.774;2022-08-19T07:53:10;6.88;;;3.90;;
74158;SDS011;62511;47.970;11.774;2022-08-19T08:00:30;5.60;;;3.63;;
74158;SDS011;62511;47.970;11.774;2022-08-19T08:02:56;6.68;;;4.20;;
74158;SDS011;62511;47.970;11.774;2022-08-19T08:05:22;7.97;;;3.90;;
74158;SDS011;62511;47.970;11.774;2022-08-19T08:08:07;6.32;;;4.22;;
74158;SDS011;62511;47.970;11.774;2022-08-19T08:10:48;7.15;;;3.92;;
74158;SDS011;62511;47.970;11.774;2022-08-19T08:13:14;6.28;;;3.67;;
74158;SDS011;62511;47.970;11.774;2022-08-19T08:18:09;7.18;;;3.67;;
74158;SDS011;62511;47.970;11.774;2022-08-19T08:20:37;6.15;;;3.50;;
74158;SDS011;62511;47.970;11.774;2022-08-19T08:23:03;4.35;;;2.97;;
74158;SDS011;62511;47.970;11.774;2022-08-19T08:25:49;4.40;;;2.78;;
74158;SDS011;62511;47.970;11.774;2022-08-19T08:28:16;4.07;;;2.78;;
74158;SDS011;62511;47.970;11.774;2022-08-19T08:30:42;5.25;;;2.97;;
74158;SDS011;62511;47.970;11.774;2022-08-19T08:33:10;5.30;;;3.00;;
74158;SDS011;62511;47.970;11.774;2022-08-19T08:35:39;4.95;;;2.92;;
74158;SDS011;62511;47.970;11.774;2022-08-19T08:38:06;3.88;;;2.58;;
74158;SDS011;62511;47.970;11.774;2022-08-19T08:40:43;4.43;;;2.72;;
74158;SDS011;62511;47.970;11.774;2022-08-19T08:45:52;4.70;;;3.30;;
74158;SDS011;62511;47.970;11.774;2022-08-19T08:48:40;4.28;;;2.88;;
74158;SDS011;62511;47.970;11.774;2022-08-19T08:51:09;4.63;;;3.30;;
74158;SDS011;62511;47.970;11.774;2022-08-19T08:53:36;3.92;;;2.75;;
74158;SDS011;62511;47.970;11.774;2022-08-19T08:56:03;4.95;;;2.92;;
74158;SDS011;62511;47.970;11.774;2022-08-19T08:58:35;5.38;;;3.00;;
74158;SDS011;62511;47.970;11.774;2022-08-19T09:01:08;4.57;;;2.88;;
74158;SDS011;62511;47.970;11.774;2022-08-19T09:03:36;3.55;;;2.67;;
74158;SDS011;62511;47.970;11.774;2022-08-19T09:06:03;6.78;;;3.05;;
74158;SDS011;62511;47.970;11.774;2022-08-19T09:08:34;4.38;;;3.03;;
74158;SDS011;62511;47.970;11.774;2022-08-19T09:11:04;5.40;;;3.58;;
74158;SDS011;62511;47.970;11.774;2022-08-19T09:13:35;4.82;;;3.20;;
74158;SDS011;62511;47.970;11.774;2022-08-19T09:16:06;5.13;;;3.50;;
74158;SDS011;62511;47.970;11.774;2022-08-19T09:18:40;5.72;;;3.50;;
74158;SDS011;62511;47.970;11.774;2022-08-19T09:21:06;4.18;;;2.80;;
74158;SDS011;62511;47.970;11.774;2022-08-19T09:25:59;4.45;;;2.53;;
74158;SDS011;62511;47.970;11.774;2022-08-19T09:28:25;4.78;;;2.90;;
74158;SDS011;62511;47.970;11.774;2022-08-19T09:30:52;4.22;;;3.05;;
74158;SDS011;62511;47.970;11.774;2022-08-19T09:33:18;4.30;;;3.17;;
74158;SDS011;62511;47.970;11.774;2022-08-19T09:35:44;4.28;;;3.08;;
74158;SDS011;62511;47.970;11.774;2022-08-19T09:38:11;6.18;;;3.85;;
74158;SDS011;62511;47.970;11.774;2022-08-19T09:40:37;5.75;;;3.63;;
74158;SDS011;62511;47.970;11.774;2022-08-19T09:43:03;6.28;;;3.30;;
74158;SDS011;62511;47.970;11.774;2022-08-19T09:45:30;5.95;;;3.55;;
74158;SDS011;62511;47.970;11.774;2022-08-19T09:47:56;6.50;;;3.90;;
74158;SDS011;62511;47.970;11.774;2022-08-19T09:50:22;5.88;;;3.60;;
74158;SDS011;62511;47.970;11.774;2022-08-19T09:52:49;4.15;;;2.90;;
74158;SDS011;62511;47.970;11.774;2022-08-19T09:55:17;4.30;;;2.88;;
74158;SDS011;62511;47.970;11.774;2022-08-19T09:57:43;6.00;;;3.50;;
74158;SDS011;62511;47.970;11.774;2022-08-19T10:00:09;5.32;;;3.47;;
74158;SDS011;62511;47.970;11.774;2022-08-19T10:02:35;5.82;;;3.58;;
74158;SDS011;62511;47.970;11.774;2022-08-19T10:05:01;6.55;;;4.07;;
74158;SDS011;62511;47.970;11.774;2022-08-19T10:07:46;5.95;;;3.58;;
74158;SDS011;62511;47.970;11.774;2022-08-19T10:10:12;4.30;;;3.20;;
74158;SDS011;62511;47.970;11.774;2022-08-19T10:12:38;5.22;;;3.25;;
74158;SDS011;62511;47.970;11.774;2022-08-19T10:15:05;4.78;;;3.17;;
74158;SDS011;62511;47.970;11.774;2022-08-19T10:17:31;5.15;;;3.80;;
74158;SDS011;62511;47.970;11.774;2022-08-19T10:19:58;6.93;;;4.00;;
74158;SDS011;62511;47.970;11.774;2022-08-19T10:22:24;6.40;;;4.05;;
74158;SDS011;62511;47.970;11.774;2022-08-19T10:24:50;6.57;;;3.70;;
74158;SDS011;62511;47.970;11.774;2022-08-19T10:27:17;4.93;;;3.53;;
74158;SDS011;62511;47.970;11.774;2022-08-19T10:29:43;6.20;;;3.78;;
74158;SDS011;62511;47.970;11.774;2022-08-19T10:32:09;6.05;;;4.20;;
74158;SDS011;62511;47.970;11.774;2022-08-19T10:34:36;6.40;;;4.05;;
74158;SDS011;62511;47.970;11.774;2022-08-19T10:37:03;5.72;;;4.13;;
74158;SDS011;62511;47.970;11.774;2022-08-19T10:39:31;7.25;;;4.20;;
74158;SDS011;62511;47.970;11.774;2022-08-19T10:41:57;6.00;;;4.32;;
74158;SDS011;62511;47.970;11.774;2022-08-19T10:44:23;6.30;;;3.80;;
74158;SDS011;62511;47.970;11.774;2022-08-19T10:46:49;6.05;;;4.32;;
74158;SDS011;62511;47.970;11.774;2022-08-19T10:49:17;7.63;;;4.60;;
74158;SDS011;62511;47.970;11.774;2022-08-19T10:51:44;6.07;;;4.13;;
74158;SDS011;62511;47.970;11.774;2022-08-19T10:54:29;6.20;;;3.78;;
74158;SDS011;62511;47.970;11.774;2022-08-19T10:57:33;7.88;;;4.30;;
74158;SDS011;62511;47.970;11.774;2022-08-19T10:59:59;7.43;;;3.92;;
74158;SDS011;62511;47.970;11.774;2022-08-19T11:02:25;5.10;;;3.47;;
74158;SDS011;62511;47.970;11.774;2022-08-19T11:04:51;5.88;;;4.05;;
74158;SDS011;62511;47.970;11.774;2022-08-19T11:07:17;6.47;;;3.90;;
74158;SDS011;62511;47.970;11.774;2022-08-19T11:09:43;4.97;;;3.20;;
74158;SDS011;62511;47.970;11.774;2022-08-19T11:12:11;5.25;;;3.53;;
74158;SDS011;62511;47.970;11.774;2022-08-19T11:14:37;6.22;;;3.65;;
74158;SDS011;62511;47.970;11.774;2022-08-19T11:17:04;5.20;;;3.17;;
74158;SDS011;62511;47.970;11.774;2022-08-19T11:19:30;4.70;;;3.20;;
74158;SDS011;62511;47.970;11.774;2022-08-19T11:21:56;4.60;;;3.00;;
74158;SDS011;62511;47.970;11.774;2022-08-19T11:24:26;4.45;;;3.30;;
74158;SDS011;62511;47.970;11.774;2022-08-19T11:26:54;4.00;;;2.65;;
74158;SDS011;62511;47.970;11.774;2022-08-19T11:29:25;4.15;;;2.78;;
74158;SDS011;62511;47.970;11.774;2022-08-19T11:31:52;4.97;;;3.00;;
74158;SDS011;62511;47.970;11.774;2022-08-19T11:34:21;4.53;;;2.92;;
74158;SDS011;62511;47.970;11.774;2022-08-19T11:36:48;3.72;;;2.90;;
74158;SDS011;62511;47.970;11.774;2022-08-19T11:39:15;3.72;;;3.15;;
74158;SDS011;62511;47.970;11.774;2022-08-19T11:41:42;4.18;;;3.03;;
74158;SDS011;62511;47.970;11.774;2022-08-19T11:44:08;3.75;;;2.83;;
74158;SDS011;62511;47.970;11.774;2022-08-19T11:46:35;4.43;;;2.80;;
74158;SDS011;62511;47.970;11.774;2022-08-19T11:49:02;3.97;;;2.63;;
74158;SDS011;62511;47.970;11.774;2022-08-19T11:51:29;3.25;;;2.40;;
74158;SDS011;62511;47.970;11.774;2022-08-19T11:53:56;3.00;;;1.90;;
74158;SDS011;62511;47.970;11.774;2022-08-19T11:56:23;3.25;;;2.70;;
74158;SDS011;62511;47.970;11.774;2022-08-19T11:58:49;3.22;;;2.22;;
74158;SDS011;62511;47.970;11.774;2022-08-19T12:01:17;4.10;;;2.60;;
74158;SDS011;62511;47.970;11.774;2022-08-19T12:03:44;3.95;;;2.65;;
74158;SDS011;62511;47.970;11.774;2022-08-19T12:06:12;2.80;;;2.33;;
74158;SDS011;62511;47.970;11.774;2022-08-19T12:08:39;2.97;;;2.15;;
74158;SDS011;62511;47.970;11.774;2022-08-19T12:11:05;2.80;;;2.30;;
74158;SDS011;62511;47.970;11.774;2022-08-19T12:13:33;2.65;;;2.40;;
74158;SDS011;62511;47.970;11.774;2022-08-19T12:15:59;3.35;;;2.40;;
74158;SDS011;62511;47.970;11.774;2022-08-19T12:18:27;3.47;;;2.38;;
74158;SDS011;62511;47.970;11.774;2022-08-19T12:20:54;2.80;;;2.20;;
74158;SDS011;62511;47.970;11.774;2022-08-19T12:23:20;2.40;;;1.98;;
74158;SDS011;62511;47.970;11.774;2022-08-19T12:25:47;2.33;;;2.05;;
74158;SDS011;62511;47.970;11.774;2022-08-19T12:28:19;4.20;;;2.40;;
74158;SDS011;62511;47.970;11.774;2022-08-19T12:30:46;3.10;;;2.13;;
74158;SDS011;62511;47.970;11.774;2022-08-19T12:33:12;2.90;;;1.85;;
74158;SDS011;62511;47.970;11.774;2022-08-19T12:35:39;2.63;;;1.80;;
74158;SDS011;62511;47.970;11.774;2022-08-19T12:38:06;4.32;;;2.08;;
74158;SDS011;62511;47.970;11.774;2022-08-19T12:40:32;1.77;;;1.58;;
74158;SDS011;62511;47.970;11.774;2022-08-19T12:42:58;1.95;;;1.75;;
74158;SDS011;62511;47.970;11.774;2022-08-19T12:45:24;2.08;;;1.60;;
74158;SDS011;62511;47.970;11.774;2022-08-19T12:47:50;1.90;;;1.58;;
74158;SDS011;62511;47.970;11.774;2022-08-19T12:50:18;2.33;;;1.67;;
74158;SDS011;62511;47.970;11.774;2022-08-19T12:52:44;2.22;;;1.70;;
74158;SDS011;62511;47.970;11.774;2022-08-19T12:55:10;3.38;;;2.58;;
74158;SDS011;62511;47.970;11.774;2022-08-19T12:57:37;5.15;;;3.33;;
74158;SDS011;62511;47.970;11.774;2022-08-19T13:00:08;4.78;;;3.55;;
74158;SDS011;62511;47.970;11.774;2022-08-19T13:02:37;4.53;;;3.17;;
74158;SDS011;62511;47.970;11.774;2022-08-19T13:07:29;3.55;;;2.45;;
74158;SDS011;62511;47.970;11.774;2022-08-19T13:09:57;4.22;;;2.35;;
74158;SDS011;62511;47.970;11.774;2022-08-19T13:12:23;4.32;;;2.80;;
74158;SDS011;62511;47.970;11.774;2022-08-19T13:14:51;4.70;;;3.00;;
74158;SDS011;62511;47.970;11.774;2022-08-19T13:17:17;3.92;;;2.60;;
74158;SDS011;62511;47.970;11.774;2022-08-19T13:19:43;2.67;;;2.28;;
74158;SDS011;62511;47.970;11.774;2022-08-19T13:22:09;3.38;;;2.08;;
74158;SDS011;62511;47.970;11.774;2022-08-19T13:24:37;4.38;;;2.70;;
74158;SDS011;62511;47.970;11.774;2022-08-19T13:27:04;3.33;;;2.50;;
74158;SDS011;62511;47.970;11.774;2022-08-19T13:29:31;2.95;;;2.00;;
74158;SDS011;62511;47.970;11.774;2022-08-19T13:32:16;3.60;;;2.10;;
74158;SDS011;62511;47.970;11.774;2022-08-19T13:35:01;3.05;;;1.80;;
74158;SDS011;62511;47.970;11.774;2022-08-19T13:37:27;2.58;;;1.88;;
74158;SDS011;62511;47.970;11.774;2022-08-19T13:40:15;2.58;;;1.70;;
74158;SDS011;62511;47.970;11.774;2022-08-19T13:42:43;2.15;;;1.40;;
74158;SDS011;62511;47.970;11.774;2022-08-19T13:45:13;1.60;;;1.38;;
74158;SDS011;62511;47.970;11.774;2022-08-19T13:47:40;2.15;;;1.50;;
74158;SDS011;62511;47.970;11.774;2022-08-19T13:50:10;1.67;;;1.20;;
74158;SDS011;62511;47.970;11.774;2022-08-19T13:52:37;1.98;;;1.30;;
74158;SDS011;62511;47.970;11.774;2022-08-19T13:57:29;1.10;;;0.80;;
74158;SDS011;62511;47.970;11.774;2022-08-19T13:59:55;0.52;;;0.52;;
74158;SDS011;62511;47.970;11.774;2022-08-19T14:02:21;1.00;;;0.60;;
74158;SDS011;62511;47.970;11.774;2022-08-19T14:04:47;1.15;;;0.80;;
74158;SDS011;62511;47.970;11.774;2022-08-19T14:07:13;0.80;;;0.63;;
74158;SDS011;62511;47.970;11.774;2022-08-19T14:09:39;0.70;;;0.60;;
74158;SDS011;62511;47.970;11.774;2022-08-19T14:12:05;1.15;;;0.63;;
74158;SDS011;62511;47.970;11.774;2022-08-19T14:14:31;0.93;;;0.77;;
74158;SDS011;62511;47.970;11.774;2022-08-19T14:16:57;0.95;;;0.63;;
74158;SDS011;62511;47.970;11.774;2022-08-19T14:19:24;1.50;;;0.95;;
74158;SDS011;62511;47.970;11.774;2022-08-19T14:21:50;1.50;;;0.93;;
74158;SDS011;62511;47.970;11.774;2022-08-19T14:24:16;1.00;;;0.90;;
74158;SDS011;62511;47.970;11.774;2022-08-19T14:26:42;0.82;;;0.80;;
74158;SDS011;62511;47.970;11.774;2022-08-19T14:29:08;1.08;;;0.90;;
74158;SDS011;62511;47.970;11.774;2022-08-19T14:31:34;1.02;;;0.90;;
74158;SDS011;62511;47.970;11.774;2022-08-19T14:34:00;0.98;;;0.70;;
74158;SDS011;62511;47.970;11.774;2022-08-19T14:36:26;2.47;;;0.70;;
74158;SDS011;62511;47.970;11.774;2022-08-19T14:38:52;1.17;;;0.88;;
74158;SDS011;62511;47.970;11.774;2022-08-19T14:41:19;1.00;;;0.77;;
74158;SDS011;62511;47.970;11.774;2022-08-19T14:43:46;1.05;;;0.85;;
74158;SDS011;62511;47.970;11.774;2022-08-19T14:46:14;0.80;;;0.70;;
74158;SDS011;62511;47.970;11.774;2022-08-19T14:48:40;1.60;;;0.90;;
74158;SDS011;62511;47.970;11.774;2022-08-19T14:51:06;0.90;;;0.90;;
74158;SDS011;62511;47.970;11.774;2022-08-19T14:53:32;1.02;;;0.77;;
74158;SDS011;62511;47.970;11.774;2022-08-19T14:55:59;1.00;;;0.90;;
74158;SDS011;62511;47.970;11.774;2022-08-19T14:58:27;0.98;;;0.82;;
74158;SDS011;62511;47.970;11.774;2022-08-19T15:00:53;0.98;;;0.80;;
74158;SDS011;62511;47.970;11.774;2022-08-19T15:03:19;1.10;;;0.80;;
74158;SDS011;62511;47.970;11.774;2022-08-19T15:05:46;1.52;;;0.88;;
74158;SDS011;62511;47.970;11.774;2022-08-19T15:08:12;2.03;;;0.90;;
74158;SDS011;62511;47.970;11.774;2022-08-19T15:10:38;2.47;;;0.77;;